Terminal Aerodrome Forecast
Issued by NWS

Current Version | Previous Version | Graphics & Text | Print | Product List | Glossary On
Versions: 1 2 3 4 5 6 7 8 9 10 11 12 13 14 15 16 17 18 19
000
FTUS41 KILN 261700
TAFLCK
TAF
KLCK 261738Z 2618/2718 35012KT 4SM -SN SCT015 OVC025
     FM262200 35010KT P6SM SCT015 OVC025
     FM270600 34005KT P6SM BKN025
     FM271000 34005KT P6SM SCT025=

USA.gov is the U.S. government's official web portal to all federal, state and local government web resources and services.